Time;durP1;ratioP1;P1;durP2;ratioP2;P2;SDS_P1;SDS_P2;PMS_P1;PMS_P2;Temp;Humidity;BMP_temperature;BMP_pressure;BME280_temperature;BME280_humidity;BME280_pressure;Samples;Min_cycle;Max_cycle;Signal;HPM_P1;HPM_P2
2021/11/28 00:01:11;;;;;;;17.30;12.97;;;;;;;;;;4977500;28;20195;-88
2021/11/28 00:03:39;;;;;;;18.60;14.13;;;;;;;;;;4977257;28;20201;-89
2021/11/28 00:06:15;;;;;;;17.93;14.67;;;;;;;;;;4977052;28;20201;-88
2021/11/28 00:11:31;;;;;;;18.10;11.57;;;;;;;;;;4973498;28;20192;-89
2021/11/28 00:16:42;;;;;;;14.73;11.63;;;;;;;;;;4976873;28;20685;-89
2021/11/28 00:19:10;;;;;;;14.30;11.47;;;;;;;;;;4977148;28;20252;-89
2021/11/28 00:21:39;;;;;;;12.83;10.83;;;;;;;;;;4977209;28;20243;-89
2021/11/28 00:24:06;;;;;;;14.77;11.37;;;;;;;;;;4977047;28;20256;-89
2021/11/28 00:26:34;;;;;;;13.60;11.53;;;;;;;;;;4976870;28;20201;-89
2021/11/28 00:29:03;;;;;;;15.53;11.30;;;;;;;;;;4976805;28;20233;-90
2021/11/28 00:31:31;;;;;;;13.83;11.17;;;;;;;;;;4976713;28;20205;-89
2021/11/28 00:33:58;;;;;;;15.30;10.80;;;;;;;;;;4976826;28;20228;-90
2021/11/28 00:36:25;;;;;;;14.57;10.57;;;;;;;;;;4976861;28;20212;-90
2021/11/28 00:38:54;;;;;;;13.97;11.13;;;;;;;;;;4976418;28;20229;-90
2021/11/28 00:41:21;;;;;;;13.33;10.30;;;;;;;;;;4976511;28;20201;-90
2021/11/28 00:43:49;;;;;;;14.97;11.03;;;;;;;;;;4976517;28;20197;-89
2021/11/28 00:46:16;;;;;;;12.80;10.27;;;;;;;;;;4976514;28;20205;-89
2021/11/28 00:48:45;;;;;;;13.63;10.20;;;;;;;;;;4976816;28;20236;-89
2021/11/28 00:53:54;;;;;;;17.70;10.20;;;;;;;;;;4959781;28;20211;-89
2021/11/28 00:56:22;;;;;;;13.37;10.27;;;;;;;;;;4975928;28;20229;-91
2021/11/28 00:58:52;;;;;;;14.10;9.93;;;;;;;;;;4976037;28;20224;-89
2021/11/28 01:01:19;;;;;;;14.47;9.43;;;;;;;;;;4976114;28;20207;-89
2021/11/28 01:03:47;;;;;;;15.73;10.53;;;;;;;;;;4976052;28;20205;-89
2021/11/28 01:06:14;;;;;;;18.63;13.17;;;;;;;;;;4976369;28;20208;-89
2021/11/28 01:08:43;;;;;;;14.40;12.37;;;;;;;;;;4976118;28;20271;-89
2021/11/28 01:11:11;;;;;;;13.40;11.03;;;;;;;;;;4976161;28;20748;-91
2021/11/28 01:13:39;;;;;;;13.67;12.10;;;;;;;;;;4976001;28;20232;-91
2021/11/28 01:16:09;;;;;;;19.20;12.93;;;;;;;;;;4975820;28;20205;-89
2021/11/28 01:18:36;;;;;;;15.70;10.53;;;;;;;;;;4975920;28;20227;-90
2021/11/28 01:21:04;;;;;;;46.33;39.90;;;;;;;;;;4975925;28;20247;-91
2021/11/28 01:23:31;;;;;;;22.70;16.53;;;;;;;;;;4975752;28;20308;-90
2021/11/28 01:25:59;;;;;;;15.30;12.13;;;;;;;;;;4975998;28;20208;-91
2021/11/28 01:28:27;;;;;;;14.30;12.80;;;;;;;;;;4976105;28;20204;-90
2021/11/28 01:30:55;;;;;;;10.57;9.43;;;;;;;;;;4975703;28;20249;-90
2021/11/28 01:33:22;;;;;;;14.47;11.13;;;;;;;;;;4975754;28;20228;-89
2021/11/28 01:35:49;;;;;;;14.03;12.57;;;;;;;;;;4975669;28;20201;-90
2021/11/28 01:38:19;;;;;;;18.07;13.13;;;;;;;;;;4975702;28;20197;-90
2021/11/28 01:40:47;;;;;;;19.83;12.67;;;;;;;;;;4975536;28;20225;-90
2021/11/28 01:43:15;;;;;;;14.80;11.37;;;;;;;;;;4975589;28;20208;-90
2021/11/28 01:45:45;;;;;;;12.13;10.57;;;;;;;;;;4975508;28;20212;-91
2021/11/28 01:48:14;;;;;;;13.93;10.57;;;;;;;;;;4975929;28;20231;-90
2021/11/28 01:50:45;;;;;;;16.37;9.27;;;;;;;;;;4975401;28;20205;-90
2021/11/28 01:53:17;;;;;;;11.30;9.27;;;;;;;;;;4975343;28;20642;-90
2021/11/28 01:55:45;;;;;;;12.13;9.93;;;;;;;;;;4974804;28;20308;-90
2021/11/28 01:58:13;;;;;;;17.57;12.50;;;;;;;;;;4975457;28;20283;-90
2021/11/28 02:00:42;;;;;;;16.53;13.70;;;;;;;;;;4975203;28;20236;-90
2021/11/28 02:03:12;;;;;;;15.67;13.57;;;;;;;;;;4975007;28;20677;-90
2021/11/28 02:05:41;;;;;;;17.17;14.43;;;;;;;;;;4974943;28;20208;-89
2021/11/28 02:08:08;;;;;;;16.63;13.97;;;;;;;;;;4974940;28;20686;-89
2021/11/28 02:10:36;;;;;;;15.57;12.53;;;;;;;;;;4974355;28;20296;-90
2021/11/28 02:13:03;;;;;;;14.67;12.43;;;;;;;;;;4974943;28;20207;-89
2021/11/28 02:15:30;;;;;;;14.20;12.60;;;;;;;;;;4974439;28;20288;-89
2021/11/28 02:18:01;;;;;;;17.20;12.77;;;;;;;;;;4975013;28;20203;-89
2021/11/28 02:20:32;;;;;;;14.43;12.17;;;;;;;;;;4974637;28;20224;-90
2021/11/28 02:23:01;;;;;;;15.27;12.43;;;;;;;;;;4975489;28;20201;-90
2021/11/28 02:25:30;;;;;;;14.97;12.73;;;;;;;;;;4974974;28;20280;-89
2021/11/28 02:27:57;;;;;;;14.67;13.03;;;;;;;;;;4974840;28;20230;-90
2021/11/28 02:30:25;;;;;;;18.70;13.00;;;;;;;;;;4974598;28;20239;-91
2021/11/28 02:32:52;;;;;;;15.80;14.03;;;;;;;;;;4974522;28;20264;-89
2021/11/28 02:35:20;;;;;;;18.70;14.73;;;;;;;;;;4974510;28;20197;-89
2021/11/28 02:37:57;;;;;;;18.33;15.57;;;;;;;;;;4974672;28;20635;-90
2021/11/28 02:40:27;;;;;;;19.50;14.37;;;;;;;;;;4974550;28;20315;-89
2021/11/28 02:43:01;;;;;;;17.50;14.57;;;;;;;;;;4974361;28;20197;-90
2021/11/28 02:45:29;;;;;;;18.97;14.93;;;;;;;;;;4974698;28;20255;-89
2021/11/28 02:47:58;;;;;;;23.13;16.00;;;;;;;;;;4974590;28;20272;-90
2021/11/28 02:50:26;;;;;;;22.27;15.40;;;;;;;;;;4974186;28;20200;-92
2021/11/28 02:52:55;;;;;;;16.23;12.90;;;;;;;;;;4974289;28;20201;-90
2021/11/28 02:55:26;;;;;;;15.57;12.50;;;;;;;;;;4974122;28;20259;-90
2021/11/28 02:57:54;;;;;;;15.27;12.27;;;;;;;;;;4974703;28;20390;-90
2021/11/28 03:00:22;;;;;;;15.73;12.70;;;;;;;;;;4973899;28;20236;-89
2021/11/28 03:02:49;;;;;;;13.40;11.93;;;;;;;;;;4974344;28;20201;-89
2021/11/28 03:05:17;;;;;;;12.63;10.87;;;;;;;;;;4974277;28;20201;-90
2021/11/28 03:07:44;;;;;;;13.23;11.63;;;;;;;;;;4974111;28;20207;-90
2021/11/28 03:10:31;;;;;;;13.00;11.17;;;;;;;;;;4974292;28;20248;-91
2021/11/28 03:12:59;;;;;;;14.00;11.63;;;;;;;;;;4974168;28;20189;-90
2021/11/28 03:15:27;;;;;;;14.70;11.33;;;;;;;;;;4973946;28;20247;-91
2021/11/28 03:17:54;;;;;;;16.63;11.50;;;;;;;;;;4973992;28;20205;-90
2021/11/28 03:20:22;;;;;;;14.77;10.87;;;;;;;;;;4974082;28;20598;-90
2021/11/28 03:22:51;;;;;;;16.33;12.80;;;;;;;;;;4977075;28;20244;-90
2021/11/28 03:25:25;;;;;;;42.37;34.57;;;;;;;;;;4978079;28;20201;-89
2021/11/28 03:27:54;;;;;;;25.53;22.07;;;;;;;;;;4977907;28;20196;-90
2021/11/28 03:30:23;;;;;;;18.13;15.00;;;;;;;;;;4977882;28;20288;-92
2021/11/28 03:32:50;;;;;;;17.00;13.57;;;;;;;;;;4977882;28;20211;-90
2021/11/28 03:35:24;;;;;;;20.07;17.57;;;;;;;;;;4978163;28;20702;-90
2021/11/28 03:37:57;;;;;;;14.50;12.80;;;;;;;;;;4977965;28;20197;-90
2021/11/28 03:40:25;;;;;;;12.47;10.73;;;;;;;;;;4977634;28;20679;-89
2021/11/28 03:42:56;;;;;;;16.17;12.20;;;;;;;;;;4977557;28;20205;-90
2021/11/28 03:45:24;;;;;;;12.03;10.70;;;;;;;;;;4977939;28;20201;-89
2021/11/28 03:47:51;;;;;;;12.60;10.97;;;;;;;;;;4977649;28;20197;-90
2021/11/28 03:50:19;;;;;;;15.27;11.27;;;;;;;;;;4977488;28;20225;-90
2021/11/28 03:52:46;;;;;;;15.67;11.03;;;;;;;;;;4977375;28;20296;-92
2021/11/28 03:55:15;;;;;;;11.73;10.53;;;;;;;;;;4977551;28;20720;-89
2021/11/28 03:57:45;;;;;;;11.53;10.07;;;;;;;;;;4977498;28;20285;-90
2021/11/28 04:00:15;;;;;;;7.73;6.90;;;;;;;;;;4977318;28;20316;-90
2021/11/28 04:02:42;;;;;;;8.30;6.30;;;;;;;;;;4977212;28;20193;-90
2021/11/28 04:05:10;;;;;;;6.93;5.67;;;;;;;;;;4976872;28;20201;-89
2021/11/28 04:07:40;;;;;;;13.30;10.30;;;;;;;;;;4977141;28;20197;-90
2021/11/28 04:10:09;;;;;;;14.40;11.00;;;;;;;;;;4977444;28;20606;-90
2021/11/28 04:12:36;;;;;;;13.07;10.07;;;;;;;;;;4977890;28;20204;-90
2021/11/28 04:15:05;;;;;;;11.63;9.23;;;;;;;;;;4977063;28;20201;-90
2021/11/28 04:17:33;;;;;;;11.73;9.93;;;;;;;;;;4977079;28;20232;-90
2021/11/28 04:20:01;;;;;;;16.93;11.40;;;;;;;;;;4977274;28;20701;-90
2021/11/28 04:22:28;;;;;;;11.57;10.37;;;;;;;;;;4977396;28;20303;-90
2021/11/28 04:24:55;;;;;;;11.00;9.33;;;;;;;;;;4976926;28;20205;-90
2021/11/28 04:27:23;;;;;;;12.53;10.50;;;;;;;;;;4976929;28;20205;-90
2021/11/28 04:29:50;;;;;;;10.37;9.13;;;;;;;;;;4976819;28;20204;-89
2021/11/28 04:32:23;;;;;;;12.60;10.93;;;;;;;;;;4976251;28;20197;-89
2021/11/28 04:34:52;;;;;;;18.07;14.67;;;;;;;;;;4976750;28;20201;-90
2021/11/28 04:37:25;;;;;;;94.90;66.47;;;;;;;;;;4976913;28;20205;-89
2021/11/28 04:39:53;;;;;;;70.20;54.50;;;;;;;;;;4976551;28;20231;-89
2021/11/28 04:42:20;;;;;;;22.37;18.60;;;;;;;;;;4976519;28;20201;-90
2021/11/28 04:44:56;;;;;;;17.37;14.63;;;;;;;;;;4976601;28;20240;-90
2021/11/28 04:47:24;;;;;;;19.77;14.87;;;;;;;;;;4976563;28;20204;-90
2021/11/28 04:49:53;;;;;;;15.03;12.47;;;;;;;;;;4976718;28;20635;-90
2021/11/28 04:52:20;;;;;;;14.53;11.70;;;;;;;;;;4976248;28;20296;-90
2021/11/28 04:54:48;;;;;;;45.63;32.93;;;;;;;;;;4975932;28;20275;-90
2021/11/28 04:57:15;;;;;;;32.33;27.80;;;;;;;;;;4976337;28;20204;-89
2021/11/28 04:59:45;;;;;;;38.20;22.50;;;;;;;;;;4976200;28;20228;-90
2021/11/28 05:02:12;;;;;;;22.70;18.23;;;;;;;;;;4976237;28;20215;-90
2021/11/28 05:04:40;;;;;;;32.40;23.50;;;;;;;;;;4976262;28;20208;-90
2021/11/28 05:07:09;;;;;;;36.57;22.97;;;;;;;;;;4976095;28;20287;-89
2021/11/28 05:09:36;;;;;;;26.17;17.37;;;;;;;;;;4976370;28;20204;-89
2021/11/28 05:12:04;;;;;;;35.07;26.07;;;;;;;;;;4976387;28;20201;-89
2021/11/28 05:14:32;;;;;;;18.97;16.80;;;;;;;;;;4976625;28;20201;-89
2021/11/28 05:16:59;;;;;;;15.77;13.60;;;;;;;;;;4976061;28;20203;-90
2021/11/28 05:19:26;;;;;;;29.50;26.33;;;;;;;;;;4976012;28;20582;-88
2021/11/28 05:21:54;;;;;;;16.47;12.53;;;;;;;;;;4975970;28;20739;-89
2021/11/28 05:24:22;;;;;;;15.50;13.63;;;;;;;;;;4976043;28;20638;-89
2021/11/28 05:26:50;;;;;;;15.33;12.33;;;;;;;;;;4975818;28;20252;-89
2021/11/28 05:29:18;;;;;;;12.87;11.03;;;;;;;;;;4975865;28;20227;-89
2021/11/28 05:31:52;;;;;;;12.03;10.37;;;;;;;;;;4975875;28;20698;-90
2021/11/28 05:34:19;;;;;;;32.17;28.73;;;;;;;;;;4975974;28;20200;-90
2021/11/28 05:36:46;;;;;;;45.07;34.10;;;;;;;;;;4975830;28;20202;-92
2021/11/28 05:39:14;;;;;;;25.20;18.13;;;;;;;;;;4975751;28;20199;-89
2021/11/28 05:41:43;;;;;;;19.43;14.50;;;;;;;;;;4975664;28;20798;-89
2021/11/28 05:44:10;;;;;;;17.23;14.30;;;;;;;;;;4974688;28;20225;-90
2021/11/28 05:46:38;;;;;;;45.13;36.03;;;;;;;;;;4975595;28;20197;-89
2021/11/28 05:49:05;;;;;;;51.60;46.00;;;;;;;;;;4975456;28;20291;-90
2021/11/28 05:51:32;;;;;;;26.43;21.63;;;;;;;;;;4975408;28;20265;-90
2021/11/28 05:54:00;;;;;;;29.30;26.10;;;;;;;;;;4975438;28;20223;-90
2021/11/28 05:56:29;;;;;;;22.67;18.37;;;;;;;;;;4975106;28;20252;-90
2021/11/28 05:58:58;;;;;;;16.87;15.00;;;;;;;;;;4975722;28;20617;-89
2021/11/28 06:01:31;;;;;;;24.73;19.00;;;;;;;;;;4975290;28;20658;-90
2021/11/28 06:03:59;;;;;;;19.20;16.57;;;;;;;;;;4975248;28;20620;-89
2021/11/28 06:06:26;;;;;;;19.63;15.67;;;;;;;;;;4975164;28;20648;-89
2021/11/28 06:08:53;;;;;;;18.90;15.97;;;;;;;;;;4975270;28;20212;-89
2021/11/28 06:11:21;;;;;;;25.60;18.73;;;;;;;;;;4975250;28;20257;-89
2021/11/28 06:13:48;;;;;;;20.60;15.60;;;;;;;;;;4975092;28;20209;-89
2021/11/28 06:16:17;;;;;;;16.00;13.70;;;;;;;;;;4974701;28;20228;-90
2021/11/28 06:18:47;;;;;;;17.50;14.53;;;;;;;;;;4975113;28;20674;-89
2021/11/28 06:21:15;;;;;;;17.30;13.37;;;;;;;;;;4974782;28;20253;-89
2021/11/28 06:23:42;;;;;;;16.97;13.17;;;;;;;;;;4975051;28;20201;-90
2021/11/28 06:26:09;;;;;;;15.77;11.87;;;;;;;;;;4974844;28;20287;-89
2021/11/28 06:28:37;;;;;;;64.83;47.03;;;;;;;;;;4974741;28;20205;-89
2021/11/28 06:31:07;;;;;;;92.90;67.60;;;;;;;;;;4974880;28;20201;-90
2021/11/28 06:33:36;;;;;;;67.70;52.23;;;;;;;;;;4974713;28;20201;-90
2021/11/28 06:36:04;;;;;;;57.50;46.00;;;;;;;;;;4974632;28;20205;-90
2021/11/28 06:38:34;;;;;;;158.80;95.63;;;;;;;;;;4974267;28;20673;-89
2021/11/28 06:41:01;;;;;;;102.83;69.40;;;;;;;;;;4974409;28;20221;-90
2021/11/28 06:43:28;;;;;;;43.73;29.53;;;;;;;;;;4974686;28;20232;-89
2021/11/28 06:45:56;;;;;;;23.03;18.03;;;;;;;;;;4974564;28;20293;-89
2021/11/28 06:48:23;;;;;;;27.20;21.03;;;;;;;;;;4974216;28;20201;-90
2021/11/28 06:50:52;;;;;;;33.13;27.13;;;;;;;;;;4974415;28;20205;-90
2021/11/28 06:53:26;;;;;;;33.00;25.93;;;;;;;;;;4974228;28;20279;-90
2021/11/28 06:55:57;;;;;;;34.63;28.97;;;;;;;;;;4973878;28;20236;-90
2021/11/28 06:58:25;;;;;;;65.20;48.03;;;;;;;;;;4974269;28;20205;-90
2021/11/28 07:00:58;;;;;;;91.50;65.93;;;;;;;;;;4974006;28;20316;-89
2021/11/28 07:03:25;;;;;;;85.13;76.07;;;;;;;;;;4974203;28;20229;-90
2021/11/28 07:05:57;;;;;;;34.30;30.57;;;;;;;;;;4974129;28;20201;-90
2021/11/28 07:08:24;;;;;;;20.67;18.57;;;;;;;;;;4974558;28;20244;-90
2021/11/28 07:10:53;;;;;;;23.90;21.57;;;;;;;;;;4974365;28;20207;-92
2021/11/28 07:13:23;;;;;;;36.73;30.90;;;;;;;;;;4974163;28;20217;-90
2021/11/28 07:15:50;;;;;;;25.90;23.10;;;;;;;;;;4974096;28;20197;-90
2021/11/28 07:18:18;;;;;;;26.53;23.80;;;;;;;;;;4974441;28;20215;-90
2021/11/28 07:20:46;;;;;;;26.33;23.57;;;;;;;;;;4973963;28;20693;-90
2021/11/28 07:23:14;;;;;;;27.73;24.63;;;;;;;;;;4974095;28;20197;-90
2021/11/28 07:25:42;;;;;;;28.40;25.40;;;;;;;;;;4973976;28;20197;-90
2021/11/28 07:28:09;;;;;;;27.47;24.67;;;;;;;;;;4973843;28;20212;-90
2021/11/28 07:30:36;;;;;;;25.37;21.47;;;;;;;;;;4973929;28;20329;-90
2021/11/28 07:33:04;;;;;;;40.43;26.37;;;;;;;;;;4974043;28;20220;-90
2021/11/28 07:35:31;;;;;;;20.50;15.33;;;;;;;;;;4974522;28;20201;-90
2021/11/28 07:38:01;;;;;;;15.97;12.77;;;;;;;;;;4973807;28;20232;-90
2021/11/28 07:40:30;;;;;;;24.70;19.33;;;;;;;;;;4973805;28;20235;-91
2021/11/28 07:42:57;;;;;;;20.80;17.50;;;;;;;;;;4974133;28;20205;-91
2021/11/28 07:45:24;;;;;;;17.87;15.87;;;;;;;;;;4973700;28;20689;-90
2021/11/28 07:47:52;;;;;;;18.83;16.17;;;;;;;;;;4973808;28;20208;-90
2021/11/28 07:50:19;;;;;;;19.83;15.80;;;;;;;;;;4973992;28;20556;-90
2021/11/28 07:52:49;;;;;;;18.20;14.87;;;;;;;;;;4973796;28;20240;-91
2021/11/28 07:55:16;;;;;;;18.17;15.50;;;;;;;;;;4973558;28;20233;-90
2021/11/28 07:57:46;;;;;;;15.13;13.53;;;;;;;;;;4973832;28;20296;-90
2021/11/28 08:00:14;;;;;;;18.83;14.17;;;;;;;;;;4973589;28;20197;-91
2021/11/28 08:02:41;;;;;;;22.87;13.83;;;;;;;;;;4973615;28;20291;-91
2021/11/28 08:05:09;;;;;;;15.10;12.13;;;;;;;;;;4973867;28;20209;-91
2021/11/28 08:07:46;;;;;;;17.67;15.73;;;;;;;;;;4974637;28;20201;-90
2021/11/28 08:10:14;;;;;;;18.90;15.00;;;;;;;;;;4977208;28;20239;-91
2021/11/28 08:12:41;;;;;;;19.57;15.60;;;;;;;;;;4977406;28;20283;-90
2021/11/28 08:15:15;;;;;;;22.13;19.00;;;;;;;;;;4977200;28;20604;-90
2021/11/28 08:17:49;;;;;;;28.77;25.67;;;;;;;;;;4976953;28;20230;-90
2021/11/28 08:20:17;;;;;;;18.97;15.67;;;;;;;;;;4977286;28;20204;-90
2021/11/28 08:22:48;;;;;;;23.13;18.97;;;;;;;;;;4977185;28;20227;-90
2021/11/28 08:25:18;;;;;;;31.23;25.57;;;;;;;;;;4977092;28;20221;-90
2021/11/28 08:27:48;;;;;;;28.30;21.03;;;;;;;;;;4977057;28;20648;-91
2021/11/28 08:30:17;;;;;;;19.67;16.83;;;;;;;;;;4976975;28;20267;-92
2021/11/28 08:32:49;;;;;;;21.77;17.70;;;;;;;;;;4976943;28;20201;-90
2021/11/28 08:35:17;;;;;;;23.07;19.40;;;;;;;;;;4976845;28;20205;-90
2021/11/28 08:37:48;;;;;;;20.97;17.67;;;;;;;;;;4976702;28;20202;-90
2021/11/28 08:40:18;;;;;;;25.17;19.07;;;;;;;;;;4976726;28;20296;-90
2021/11/28 08:42:45;;;;;;;32.50;27.23;;;;;;;;;;4977119;28;20629;-90
2021/11/28 08:45:13;;;;;;;29.83;21.97;;;;;;;;;;4976867;28;20205;-90
2021/11/28 08:47:42;;;;;;;35.87;29.77;;;;;;;;;;4976756;28;20207;-91
2021/11/28 08:50:11;;;;;;;59.10;37.70;;;;;;;;;;4976479;28;20205;-91
2021/11/28 08:52:38;;;;;;;66.40;49.27;;;;;;;;;;4976609;28;20201;-90
2021/11/28 08:55:07;;;;;;;30.13;25.70;;;;;;;;;;4976054;28;20233;-90
2021/11/28 08:57:35;;;;;;;32.30;28.87;;;;;;;;;;4976439;28;20232;-91
2021/11/28 09:00:02;;;;;;;99.30;65.67;;;;;;;;;;4976228;28;20300;-91
2021/11/28 09:02:30;;;;;;;39.13;31.37;;;;;;;;;;4976546;28;20256;-90
2021/11/28 09:05:01;;;;;;;37.03;30.40;;;;;;;;;;4976418;28;20670;-92
2021/11/28 09:07:29;;;;;;;19.50;17.20;;;;;;;;;;4976299;28;20197;-91
2021/11/28 09:09:59;;;;;;;18.23;15.40;;;;;;;;;;4976070;28;20197;-90
2021/11/28 09:12:27;;;;;;;20.73;16.37;;;;;;;;;;4976170;28;20201;-90
2021/11/28 09:14:54;;;;;;;15.03;13.53;;;;;;;;;;4976006;28;20201;-91
2021/11/28 09:17:21;;;;;;;22.20;18.10;;;;;;;;;;4976114;28;20193;-90
2021/11/28 09:19:54;;;;;;;21.70;17.63;;;;;;;;;;4975947;28;20288;-90
2021/11/28 09:22:33;;;;;;;24.53;18.13;;;;;;;;;;4975655;28;20311;-90
2021/11/28 09:25:00;;;;;;;37.93;27.70;;;;;;;;;;4975955;28;20267;-90
2021/11/28 09:27:27;;;;;;;16.77;14.50;;;;;;;;;;4976150;28;20211;-90
2021/11/28 09:29:55;;;;;;;17.90;14.50;;;;;;;;;;4975974;28;20197;-90
2021/11/28 09:32:22;;;;;;;16.13;10.73;;;;;;;;;;4975866;28;20209;-90
2021/11/28 09:34:50;;;;;;;23.80;15.70;;;;;;;;;;4975802;28;20275;-91
2021/11/28 09:37:17;;;;;;;30.53;15.63;;;;;;;;;;4975756;28;20205;-91
2021/11/28 09:39:46;;;;;;;41.97;23.07;;;;;;;;;;4975623;28;20265;-92
2021/11/28 09:42:14;;;;;;;51.53;27.37;;;;;;;;;;4975588;28;20240;-92
2021/11/28 09:44:43;;;;;;;27.40;19.23;;;;;;;;;;4975246;28;20201;-91
2021/11/28 09:47:11;;;;;;;20.73;14.80;;;;;;;;;;4975628;28;20201;-91
2021/11/28 09:49:40;;;;;;;29.83;23.07;;;;;;;;;;4975693;28;20243;-91
2021/11/28 09:52:11;;;;;;;14.20;12.53;;;;;;;;;;4975682;28;20197;-91
2021/11/28 09:54:43;;;;;;;20.87;15.07;;;;;;;;;;4975133;28;20205;-91
2021/11/28 09:57:14;;;;;;;19.40;16.47;;;;;;;;;;4975353;28;20263;-91
2021/11/28 09:59:43;;;;;;;20.70;18.50;;;;;;;;;;4975399;28;20201;-91
2021/11/28 10:02:16;;;;;;;27.03;22.80;;;;;;;;;;4975149;28;20224;-91
2021/11/28 10:04:44;;;;;;;25.60;22.97;;;;;;;;;;4975733;28;20197;-90
2021/11/28 10:07:13;;;;;;;23.97;21.40;;;;;;;;;;4975124;28;20197;-91
2021/11/28 10:09:40;;;;;;;39.93;35.73;;;;;;;;;;4975313;28;20727;-91
2021/11/28 10:12:21;;;;;;;31.50;27.47;;;;;;;;;;4975142;28;20657;-91
2021/11/28 10:14:52;;;;;;;25.67;23.13;;;;;;;;;;4975907;28;20218;-90
2021/11/28 10:17:28;;;;;;;20.20;17.33;;;;;;;;;;4974831;28;20205;-91
2021/11/28 10:19:55;;;;;;;18.70;16.03;;;;;;;;;;4974662;28;20291;-91
2021/11/28 10:22:23;;;;;;;18.50;16.50;;;;;;;;;;4974692;28;20320;-91
2021/11/28 10:24:53;;;;;;;19.57;16.17;;;;;;;;;;4974644;28;20768;-91
2021/11/28 10:27:36;;;;;;;30.63;25.20;;;;;;;;;;4975041;28;20209;-91
2021/11/28 10:30:05;;;;;;;33.83;25.50;;;;;;;;;;4974185;28;20189;-91
2021/11/28 10:32:32;;;;;;;57.33;38.60;;;;;;;;;;4974525;28;20193;-91
2021/11/28 10:34:59;;;;;;;91.20;54.03;;;;;;;;;;4974405;28;20201;-91
2021/11/28 10:37:27;;;;;;;48.80;32.30;;;;;;;;;;4974709;28;20685;-91
2021/11/28 10:39:58;;;;;;;29.27;19.77;;;;;;;;;;4974812;28;20256;-91
2021/11/28 10:42:30;;;;;;;24.63;19.40;;;;;;;;;;4974515;28;20256;-91
2021/11/28 10:45:05;;;;;;;23.77;19.87;;;;;;;;;;4975584;28;20220;-91
2021/11/28 10:47:44;;;;;;;31.83;23.67;;;;;;;;;;4974546;28;20200;-91
2021/11/28 10:50:14;;;;;;;15.13;12.87;;;;;;;;;;4974515;28;20212;-92
2021/11/28 10:52:42;;;;;;;15.77;14.17;;;;;;;;;;4974426;28;20201;-92
2021/11/28 10:55:19;;;;;;;31.77;24.80;;;;;;;;;;4974167;28;20242;-91
2021/11/28 10:57:47;;;;;;;20.40;15.70;;;;;;;;;;4974367;28;20193;-92
2021/11/28 11:00:16;;;;;;;50.33;34.20;;;;;;;;;;4974363;28;20205;-91
2021/11/28 11:02:46;;;;;;;30.47;23.30;;;;;;;;;;4974052;28;20254;-93
2021/11/28 11:05:14;;;;;;;37.87;28.17;;;;;;;;;;4974332;28;20202;-92
2021/11/28 11:07:48;;;;;;;25.03;20.80;;;;;;;;;;4974074;28;20602;-92
2021/11/28 11:10:21;;;;;;;20.30;18.20;;;;;;;;;;4974005;28;20247;-92
2021/11/28 11:12:51;;;;;;;18.47;15.37;;;;;;;;;;4974068;28;20186;-91
2021/11/28 11:15:37;;;;;;;19.40;16.67;;;;;;;;;;4973948;28;20580;-92
2021/11/28 11:18:06;;;;;;;20.03;16.83;;;;;;;;;;4973545;28;20205;-91
2021/11/28 11:20:35;;;;;;;21.93;16.03;;;;;;;;;;4974351;28;20636;-91
2021/11/28 11:23:03;;;;;;;20.00;16.93;;;;;;;;;;4974305;28;20707;-90
2021/11/28 11:25:36;;;;;;;18.50;16.43;;;;;;;;;;4974009;28;20707;-92
2021/11/28 11:28:11;;;;;;;21.20;17.23;;;;;;;;;;4974142;28;20200;-92
2021/11/28 11:30:39;;;;;;;19.43;17.30;;;;;;;;;;4974332;28;20564;-91
2021/11/28 11:33:07;;;;;;;31.57;25.43;;;;;;;;;;4973920;28;20335;-93
2021/11/28 11:35:40;;;;;;;39.93;31.77;;;;;;;;;;4973628;28;20289;-92
2021/11/28 11:38:09;;;;;;;56.20;43.13;;;;;;;;;;4974116;28;20230;-92
2021/11/28 11:40:36;;;;;;;31.87;27.03;;;;;;;;;;4973761;28;20217;-92
2021/11/28 11:43:04;;;;;;;36.73;30.43;;;;;;;;;;4975468;28;20235;-92
2021/11/28 11:45:36;;;;;;;32.10;26.83;;;;;;;;;;4977643;28;20282;-92
2021/11/28 11:48:05;;;;;;;31.33;21.97;;;;;;;;;;4977995;28;20208;-92
2021/11/28 11:50:35;;;;;;;23.87;20.10;;;;;;;;;;4977868;28;20208;-92
2021/11/28 11:53:03;;;;;;;27.70;23.90;;;;;;;;;;4978026;28;20216;-92
2021/11/28 11:55:46;;;;;;;33.90;28.77;;;;;;;;;;4977459;28;20311;-91
2021/11/28 11:58:23;;;;;;;47.73;38.97;;;;;;;;;;4977735;28;20198;-92
2021/11/28 12:01:00;;;;;;;29.93;25.63;;;;;;;;;;4977551;28;20267;-91
2021/11/28 12:03:28;;;;;;;37.93;27.47;;;;;;;;;;4977241;28;20224;-93
2021/11/28 12:05:57;;;;;;;32.87;27.20;;;;;;;;;;4977417;28;20709;-93
2021/11/28 12:08:29;;;;;;;34.27;27.10;;;;;;;;;;4977341;28;20217;-92
2021/11/28 12:11:02;;;;;;;75.33;46.23;;;;;;;;;;4977486;28;20201;-91
2021/11/28 12:13:52;;;;;;;49.37;37.40;;;;;;;;;;4977538;28;20203;-92
2021/11/28 12:16:22;;;;;;;49.60;37.90;;;;;;;;;;4977359;28;20219;-92
2021/11/28 12:18:52;;;;;;;73.23;53.30;;;;;;;;;;4976859;28;20201;-92
2021/11/28 12:21:25;;;;;;;49.80;41.57;;;;;;;;;;4977389;28;20201;-91
2021/11/28 12:24:02;;;;;;;36.30;29.10;;;;;;;;;;4976789;28;20679;-91
2021/11/28 12:27:03;;;;;;;26.20;23.10;;;;;;;;;;4977025;28;20192;-91
2021/11/28 12:29:46;;;;;;;39.07;29.90;;;;;;;;;;4917707;29;20194;-92
2021/11/28 12:32:25;;;;;;;19.80;16.97;;;;;;;;;;4917740;29;20208;-93
2021/11/28 12:35:03;;;;;;;34.50;27.23;;;;;;;;;;4917493;29;20210;-91
2021/11/28 12:37:42;;;;;;;54.47;37.40;;;;;;;;;;4917593;29;20201;-91
2021/11/28 12:40:28;;;;;;;40.73;32.67;;;;;;;;;;4917644;29;20215;-90
2021/11/28 12:42:56;;;;;;;31.43;27.33;;;;;;;;;;4917710;29;20214;-91
2021/11/28 12:45:34;;;;;;;22.10;17.43;;;;;;;;;;4917338;29;20210;-91
2021/11/28 12:48:09;;;;;;;41.23;31.53;;;;;;;;;;4917655;29;20243;-90
2021/11/28 12:51:00;;;;;;;104.27;72.37;;;;;;;;;;4917686;29;20195;-90
2021/11/28 12:53:36;;;;;;;56.00;44.67;;;;;;;;;;4917149;29;20199;-91
2021/11/28 12:56:23;;;;;;;41.63;30.67;;;;;;;;;;4916842;29;20235;-91
2021/11/28 12:59:15;;;;;;;20.00;17.10;;;;;;;;;;4917246;29;20207;-91
2021/11/28 13:02:00;;;;;;;16.83;13.43;;;;;;;;;;4976201;28;20767;-91
2021/11/28 13:04:49;;;;;;;16.20;14.47;;;;;;;;;;4976689;28;20652;-90
2021/11/28 13:07:34;;;;;;;16.50;14.30;;;;;;;;;;4976540;28;20198;-91
2021/11/28 13:10:26;;;;;;;11.07;9.90;;;;;;;;;;4976294;28;20289;-91
2021/11/28 13:12:54;;;;;;;15.70;13.73;;;;;;;;;;4976384;28;20201;-91
2021/11/28 13:15:23;;;;;;;11.83;10.63;;;;;;;;;;4976236;28;20198;-90
2021/11/28 13:17:51;;;;;;;21.37;18.40;;;;;;;;;;4976199;28;20211;-90
2021/11/28 13:20:20;;;;;;;27.27;23.33;;;;;;;;;;4976021;28;20201;-90
2021/11/28 13:22:47;;;;;;;20.87;17.17;;;;;;;;;;4975830;28;20230;-90
2021/11/28 13:25:44;;;;;;;11.20;9.13;;;;;;;;;;4975548;28;20225;-90
2021/11/28 13:28:15;;;;;;;46.70;34.67;;;;;;;;;;4943349;28;20296;-90
2021/11/28 13:30:45;;;;;;;53.63;41.97;;;;;;;;;;4975955;28;20205;-92
2021/11/28 13:33:14;;;;;;;55.13;41.03;;;;;;;;;;4976165;28;20205;-91
2021/11/28 13:35:44;;;;;;;145.73;96.50;;;;;;;;;;4975835;28;20289;-90
2021/11/28 13:38:13;;;;;;;55.60;40.57;;;;;;;;;;4975692;28;20197;-90
2021/11/28 13:40:40;;;;;;;36.23;27.43;;;;;;;;;;4975544;28;20284;-90
2021/11/28 13:43:08;;;;;;;78.53;57.37;;;;;;;;;;4975483;28;20226;-91
2021/11/28 13:45:35;;;;;;;41.50;29.07;;;;;;;;;;4975465;28;20284;-93
2021/11/28 13:48:02;;;;;;;15.23;13.43;;;;;;;;;;4975879;28;20640;-91
2021/11/28 13:50:30;;;;;;;11.87;8.80;;;;;;;;;;4975475;28;20202;-91
2021/11/28 13:53:16;;;;;;;24.13;21.53;;;;;;;;;;4975514;28;20216;-90
2021/11/28 13:55:51;;;;;;;19.13;16.73;;;;;;;;;;4975710;28;20614;-91
2021/11/28 13:58:23;;;;;;;11.43;9.43;;;;;;;;;;4956532;28;20186;-91
2021/11/28 14:00:50;;;;;;;16.00;13.33;;;;;;;;;;4955947;28;20195;-92
2021/11/28 14:03:21;;;;;;;11.20;8.03;;;;;;;;;;4955776;29;20226;-92
2021/11/28 14:05:48;;;;;;;12.17;10.77;;;;;;;;;;4955090;28;20681;-92
2021/11/28 14:08:16;;;;;;;16.17;12.80;;;;;;;;;;4956030;29;20627;-92
2021/11/28 14:10:44;;;;;;;13.93;12.47;;;;;;;;;;4955502;29;20289;-93
2021/11/28 14:13:11;;;;;;;15.77;12.10;;;;;;;;;;4955655;29;20280;-93
2021/11/28 14:15:38;;;;;;;13.73;11.40;;;;;;;;;;4955918;29;20648;-92
2021/11/28 14:18:07;;;;;;;18.63;14.93;;;;;;;;;;4955745;29;20678;-92
2021/11/28 14:20:36;;;;;;;20.40;17.13;;;;;;;;;;4955628;29;20212;-92
2021/11/28 14:23:05;;;;;;;23.30;20.17;;;;;;;;;;4955598;29;20260;-92
2021/11/28 14:25:36;;;;;;;18.07;14.43;;;;;;;;;;4956206;29;20662;-90
2021/11/28 14:28:08;;;;;;;10.23;8.23;;;;;;;;;;4955470;29;20281;-89
2021/11/28 14:30:36;;;;;;;13.77;9.40;;;;;;;;;;4955450;28;20198;-90
2021/11/28 14:33:06;;;;;;;31.27;24.27;;;;;;;;;;4973214;28;20662;-90
2021/11/28 14:35:33;;;;;;;48.17;32.30;;;;;;;;;;4974840;28;20201;-91
2021/11/28 14:38:15;;;;;;;80.60;51.07;;;;;;;;;;4974586;28;20196;-90
2021/11/28 14:40:51;;;;;;;121.70;74.27;;;;;;;;;;4974549;28;20196;-91
2021/11/28 14:43:22;;;;;;;147.00;95.47;;;;;;;;;;4974327;28;20208;-91